Relevés horaires Koksijde (Belgique)


Relevés horaires à Koksijde - Dimanche 15 Mai 2022
Heure UTC1 Température [°C] Vent [km/h] Hum. [%] Pres.4 [hPa] Visi. [Km] Nébu. [octa] Préc.5 [mm] Cond.
2m. Res. Ros. Dir.2 Vit. Moy. Raf.3
23:00 19.7 19.7 8.9 SE 5.6 -- 9.3 50 1011.8(-0.2/3h) 20 -- -- --
22:00 18.5 18.5 8.8 NNO 1.9 -- 3.7 53 1012.2(0.4/3h) 20 -- -- --
21:00 19.5 19.5 7.8 NNO 1.9 -- 11.1 47 1012.6(0.6/3h) 20 -- -- --
20:00 19.4 19.4 7.9 ESE 3.7 -- 7.4 47 1012.2(0.1/3h) 20 -- -- --
19:00 22.0 22.0 8.8 ESE 5.6 -- 11.1 43 1011.7(-0.9/3h) 20 -- -- --
18:00 25.6 25.6 9.4 E 5.6 -- 18.5 36 1011.8(-1.7/3h) 20 -- -- --
17:00 26.8 26.8 8.4 ESE 7.4 -- 14.8 31 1012.1(-2.2/3h) 20 -- -- --
16:00 27.1 27.1 8.4 ESE 9.3 -- 18.5 31 1012.7(-2.2/3h) 20 -- -- --
15:00 26.8 26.8 9.2 ESE 11.1 -- 18.5 33 1013.6(-2.2/3h) 20 -- -- --
14:00 27.1 27.1 7.9 ESE 11.1 -- 18.5 30 1014.2(-2.1/3h) 20 -- -- --
13:00 26.6 26.6 7.8 SE 9.3 -- 18.5 30 1015(-2.1/3h) 20 -- -- --
12:00 25.7 25.7 8.6 ESE 9.3 -- 14.8 34 1015.7(-1.7/3h) 20 -- -- --
11:00 24.5 24.5 9.5 ESE 7.4 -- 14.8 39 1016.5(-1.3/3h) 18 -- -- --
10:00 23.8 23.8 9.9 E 9.3 -- 13.0 41 1017.2(-1.0/3h) 20 -- -- --
09:00 21.7 21.7 10.4 ESE 7.4 -- 11.1 49 1017.6(-0.7/3h) 20 -- -- --
08:00 19.8 19.8 11.9 E 5.6 -- 9.3 60 1017.8(-0.3/3h) 19 -- -- --
07:00 16.2 16.2 10.9 E 5.6 -- 7.4 71 1018.2(-0.2/3h) 12 -- -- --
06:00 12.6 12.6 10.1 E 3.7 -- 5.6 85 1018.3(-0.6/3h) 10 -- -- --
05:00 10.7 10.7 9.0 E 3.7 -- 3.7 89 1018.2(-0.9/3h) 8 -- -- --
04:00 9.3 9.3 8.0 E 3.7 -- 3.7 92 1018.5(-1.0/3h) 7 -- -- --
03:00 10.0 10.0 8.5 ENE 3.7 -- 5.6 90 1019(-0.9/3h) 8 -- -- --
02:00 10.0 10.0 8.5 NNO 1.9 -- 3.7 90 1019.2(-0.9/3h) 8 -- -- --
01:00 10.1 10.1 8.4 NNO 1.9 -- 5.6 89 1019.6(-0.7/3h) 9 -- -- --
00:00 10.1 10.1 8.2 NNO 1.9 -- 9.3 88 1020(-0.7/3h) 12 -- -- --

1 Coordinated Universal Time. Actuellement il est 11:00 locale et 09:00 UTC.

2 Le vent souffle depuis la direction indiquée vers la direction oposée.

3 Les rafales max. sont disponible 40 min après l'heure du relevé.

4 Pour les stations d'altitude (plus de 600m) le géopotentiel du niveau le plus proche de la pression obligatoire est indiqué.

5 Les stations disposant d'un diffuseur peuvent indiquer "trace". Cela signifie que des précipitations ont touchés le sol mais que la quantité est inférieure à 0.1 mm.

Récapitulatif de la journée
Température [°C] Vent [km/h] Ensoleillement4 [h] Precipitations totale5 [mm] Pression [Hpa]
Min1 Max.2 Moy.3 Max. Min Max.
9.3 27.8 0 18.5 0 h 0 min 0 1011.7 1020.0

1 Température minimale relevée entre 18:00 UTC la veille et 18:00 UTC le jour donné.

2 Température maximale relevée entre 06:00 UTC le jour donné et 06:00 UTC le lendemain.

3 Vent moyen de la journée basé sur les relevés horaires.

4 Ensoleillement en heures relevé entre 06:00 UTC la veille et 06:00 UTC le jour donné.

5 Précipitations totales tombées entre 06:00 UTC la jour donné et 06:00 UTC le lendemain.

Graphiques horaires